Academy, New Jersey
Current Conditions -  °F | °C
As of 1:51 PM on Tuesday 27 Jan 2015 (Local Time) from KEWR Reporting Station
Overcast Overcast  
Wind Chill: 17°   Ceiling: 7000
Heat Index: 29°   Visibility: 10mi
Dew Point: 18°   Wind: 17mph
Humidity: 64%   Direction: 340°NNW
Pressure: 29.66"   Gusts: NA
Location:  40.7334°N, 74.1735°W
Report Text: KEWR 271851Z 34015KT 10SM FEW015 SCT045 BKN070 OVC250 M02/M08 A2966 RMK AO2 SLP044 T10171078 $
Loading
Personal Weather Stations






























Interactive Weather Map New forecast layout! Learn more

10-Day Weather Forecast

Advertisements
Track Severe Weather on mobile